Time;durP1;ratioP1;P1;durP2;ratioP2;P2;SDS_P1;SDS_P2;PMS_P1;PMS_P2;Temp;Humidity;BMP_temperature;BMP_pressure;BME280_temperature;BME280_humidity;BME280_pressure;Samples;Min_cycle;Max_cycle;Signal;HPM_P1;HPM_P2
2021/05/01 00:01:08;;;;;;;162.93;51.13;;;7.40;99.90;;;;;;5070819;28;20032;-74
2021/05/01 00:03:34;;;;;;;164.20;44.40;;;7.40;99.90;;;;;;5071524;28;20089;-74
2021/05/01 00:06:00;;;;;;;176.40;45.83;;;7.30;99.90;;;;;;5062782;28;20536;-74
2021/05/01 00:08:29;;;;;;;161.85;45.88;;;7.30;99.90;;;;;;5083714;28;20024;-74
2021/05/01 00:11:03;;;;;;;166.23;45.35;;;7.20;99.90;;;;;;5081045;28;20520;-74
2021/05/01 00:13:31;;;;;;;163.07;47.03;;;7.20;99.90;;;;;;5078832;28;20031;-74
2021/05/01 00:15:57;;;;;;;284.20;53.95;;;7.20;99.90;;;;;;5079886;28;20036;-74
2021/05/01 00:18:24;;;;;;;620.65;54.25;;;7.20;99.90;;;;;;5073818;28;20585;-74
2021/05/01 00:20:50;;;;;;;302.88;45.80;;;7.10;99.90;;;;;;5076584;28;20071;-74
2021/05/01 00:23:15;;;;;;;234.38;47.67;;;7.10;99.90;;;;;;5077289;28;20101;-74
2021/05/01 00:25:41;;;;;;;756.17;65.60;;;7.10;99.90;;;;;;5079478;28;20089;-74
2021/05/01 00:28:07;;;;;;;665.50;59.70;;;7.10;99.90;;;;;;5073455;28;20486;-74
2021/05/01 00:30:33;;;;;;;466.65;50.35;;;7.10;99.90;;;;;;5077543;28;20040;-74
2021/05/01 00:32:59;;;;;;;397.45;51.85;;;7.10;99.90;;;;;;5076858;28;20037;-74
2021/05/01 00:35:27;;;;;;;274.30;45.55;;;7.00;99.90;;;;;;5074901;28;20498;-74
2021/05/01 00:37:53;;;;;;;293.35;46.35;;;7.00;99.90;;;;;;5075484;28;20066;-74
2021/05/01 00:40:19;;;;;;;229.68;43.20;;;7.00;99.90;;;;;;5075518;28;20036;-74
2021/05/01 00:42:44;;;;;;;171.63;42.50;;;7.00;99.90;;;;;;5073508;28;20032;-74
2021/05/01 00:45:11;;;;;;;142.88;42.78;;;6.90;99.90;;;;;;5076666;28;21255;-74
2021/05/01 00:47:36;;;;;;;170.02;44.40;;;6.90;99.90;;;;;;5074390;28;20045;-74
2021/05/01 00:50:03;;;;;;;139.38;43.55;;;6.90;99.90;;;;;;5081059;28;20043;-74
2021/05/01 00:52:31;;;;;;;190.55;46.38;;;6.80;99.90;;;;;;5079894;28;20344;-74
2021/05/01 00:54:57;;;;;;;263.00;51.28;;;6.80;99.90;;;;;;5106311;27;20077;-74
2021/05/01 00:57:24;;;;;;;152.63;44.75;;;6.80;99.90;;;;;;5078802;28;20036;-74
2021/05/01 00:59:50;;;;;;;218.00;49.55;;;6.70;99.90;;;;;;5079789;28;20115;-74
2021/05/01 01:02:21;;;;;;;124.40;48.22;;;6.70;99.90;;;;;;5081572;28;20150;-74
2021/05/01 01:04:47;;;;;;;224.65;55.00;;;6.70;99.90;;;;;;5079732;28;20409;-74
2021/05/01 01:07:13;;;;;;;161.38;47.30;;;6.70;99.90;;;;;;5070760;28;20028;-74
2021/05/01 01:09:39;;;;;;;137.23;46.80;;;6.70;99.90;;;;;;5071055;28;20040;-74
2021/05/01 01:12:06;;;;;;;125.30;46.47;;;6.70;99.90;;;;;;5073185;28;20408;-74
2021/05/01 01:14:32;;;;;;;165.82;51.17;;;6.70;99.90;;;;;;5073649;28;20482;-74
2021/05/01 01:16:58;;;;;;;163.63;49.42;;;6.80;99.90;;;;;;5071149;28;20070;-74
2021/05/01 01:19:24;;;;;;;188.07;47.47;;;6.80;99.90;;;;;;5072908;28;20040;-74
2021/05/01 01:21:50;;;;;;;142.85;44.45;;;6.70;99.90;;;;;;5061312;28;20725;-74
2021/05/01 01:24:16;;;;;;;94.07;42.05;;;6.70;99.90;;;;;;5075790;28;20552;-74
2021/05/01 01:26:44;;;;;;;167.05;46.33;;;6.60;99.90;;;;;;5072169;28;20056;-74
2021/05/01 01:29:13;;;;;;;99.80;43.60;;;6.70;99.90;;;;;;5074639;28;20043;-74
2021/05/01 01:31:40;;;;;;;124.53;46.33;;;6.70;99.90;;;;;;5075103;28;20068;-74
2021/05/01 01:34:06;;;;;;;212.18;53.30;;;6.70;99.90;;;;;;5082772;28;20868;-74
2021/05/01 01:36:32;;;;;;;157.75;48.95;;;6.70;99.90;;;;;;5077224;28;20120;-74
2021/05/01 01:38:58;;;;;;;262.75;57.50;;;6.70;99.90;;;;;;5077105;28;20036;-74
2021/05/01 01:41:48;;;;;;;224.77;59.28;;;6.60;99.90;;;;;;5073136;28;20062;-74
2021/05/01 01:44:13;;;;;;;205.25;53.85;;;6.60;99.90;;;;;;5027831;28;20067;-74
2021/05/01 01:46:39;;;;;;;184.75;47.97;;;6.60;99.90;;;;;;5010765;28;20076;-74
2021/05/01 01:49:05;;;;;;;331.33;48.40;;;6.60;99.90;;;;;;5035025;28;20123;-74
2021/05/01 01:51:31;;;;;;;567.20;52.05;;;6.60;99.90;;;;;;5033303;28;20077;-74
2021/05/01 01:53:57;;;;;;;468.92;49.08;;;6.60;99.90;;;;;;5038349;28;20041;-74
2021/05/01 01:56:24;;;;;;;815.22;65.28;;;6.50;99.90;;;;;;5040604;28;20045;-74
2021/05/01 01:58:52;;;;;;;867.20;69.78;;;6.50;99.90;;;;;;5037496;28;20045;-74
2021/05/01 02:01:17;;;;;;;648.80;58.15;;;6.50;99.90;;;;;;5024614;28;20043;-74
2021/05/01 02:03:43;;;;;;;398.23;44.15;;;6.50;99.90;;;;;;5037443;28;20037;-74
2021/05/01 02:06:09;;;;;;;460.55;48.72;;;6.50;99.90;;;;;;5019491;28;20036;-74
2021/05/01 02:08:35;;;;;;;384.00;44.00;;;6.50;99.90;;;;;;5023961;28;20045;-74
2021/05/01 02:11:01;;;;;;;375.42;44.20;;;6.50;99.90;;;;;;5019458;28;20033;-74
2021/05/01 02:13:27;;;;;;;372.13;42.58;;;6.40;99.90;;;;;;5030474;28;20407;-74
2021/05/01 02:15:53;;;;;;;419.92;42.10;;;6.40;99.90;;;;;;5031822;28;20037;-74
2021/05/01 02:18:19;;;;;;;273.48;38.45;;;6.40;99.90;;;;;;5014669;28;20617;-74
2021/05/01 02:20:45;;;;;;;654.92;53.30;;;6.30;99.90;;;;;;5029940;28;20200;-74
2021/05/01 02:23:11;;;;;;;540.03;51.75;;;6.30;99.90;;;;;;5028844;28;20041;-74
2021/05/01 02:25:37;;;;;;;727.60;59.92;;;6.30;99.90;;;;;;5014692;28;20044;-74
2021/05/01 02:28:04;;;;;;;549.20;48.75;;;6.30;99.90;;;;;;5015314;28;20052;-74
2021/05/01 02:30:29;;;;;;;590.22;53.42;;;6.30;99.90;;;;;;5030904;28;20515;-74
2021/05/01 02:32:57;;;;;;;590.67;55.28;;;6.30;99.90;;;;;;5032239;28;20041;-74
2021/05/01 02:35:29;;;;;;;625.47;63.25;;;6.20;99.90;;;;;;5017570;28;20045;-74
2021/05/01 02:37:56;;;;;;;513.38;57.75;;;6.30;99.90;;;;;;5033970;28;20045;-74
2021/05/01 02:40:23;;;;;;;570.85;61.13;;;6.30;99.90;;;;;;5018204;28;20139;-74
2021/05/01 02:42:50;;;;;;;797.83;71.03;;;6.30;99.90;;;;;;5038248;28;20038;-74
2021/05/01 02:45:20;;;;;;;658.70;66.05;;;6.30;99.90;;;;;;5037128;28;20033;-74
2021/05/01 02:47:47;;;;;;;569.67;61.28;;;6.30;99.90;;;;;;5020488;28;20049;-74
2021/05/01 02:50:14;;;;;;;637.20;61.40;;;6.30;99.90;;;;;;5038989;28;20037;-74
2021/05/01 02:52:39;;;;;;;622.92;63.17;;;6.30;99.90;;;;;;5047431;28;20083;-74
2021/05/01 02:55:07;;;;;;;422.13;51.78;;;6.30;99.90;;;;;;5037907;28;20048;-74
2021/05/01 02:57:33;;;;;;;574.75;57.13;;;6.20;99.90;;;;;;5045078;28;20577;-74
2021/05/01 03:00:02;;;;;;;576.35;55.85;;;6.20;99.90;;;;;;5038279;28;20048;-74
2021/05/01 03:02:29;;;;;;;386.95;47.67;;;6.10;99.90;;;;;;5082194;28;20042;-74
2021/05/01 03:04:55;;;;;;;476.45;49.42;;;6.10;99.90;;;;;;5084054;28;20043;-74
2021/05/01 03:07:23;;;;;;;377.35;45.75;;;6.00;99.90;;;;;;5089222;28;20047;-74
2021/05/01 03:09:49;;;;;;;396.05;46.72;;;6.00;99.90;;;;;;5086068;28;20039;-74
2021/05/01 03:12:15;;;;;;;495.13;52.00;;;5.90;99.90;;;;;;5080490;28;20093;-74
2021/05/01 03:14:42;;;;;;;298.23;42.70;;;5.90;99.90;;;;;;5080257;28;20045;-74
2021/05/01 03:17:07;;;;;;;395.83;47.22;;;5.80;99.90;;;;;;5079231;28;20037;-73
2021/05/01 03:19:33;;;;;;;543.45;52.28;;;5.80;99.90;;;;;;5075562;28;20042;-74
2021/05/01 03:21:59;;;;;;;532.38;50.38;;;5.80;99.90;;;;;;5076968;28;20036;-74
2021/05/01 03:24:25;;;;;;;493.45;48.08;;;5.70;99.90;;;;;;5076432;28;20036;-74
2021/05/01 03:26:51;;;;;;;618.95;57.60;;;5.70;99.90;;;;;;5062712;28;20052;-74
2021/05/01 03:29:17;;;;;;;642.70;58.08;;;5.70;99.90;;;;;;5077176;28;20044;-74
2021/05/01 03:31:43;;;;;;;633.20;62.25;;;5.60;99.90;;;;;;5076166;28;20417;-74
2021/05/01 03:34:08;;;;;;;489.85;55.22;;;5.60;99.90;;;;;;5078744;28;20032;-74
2021/05/01 03:36:34;;;;;;;544.53;52.80;;;5.60;99.90;;;;;;5078805;28;20059;-74
2021/05/01 03:39:00;;;;;;;754.78;64.95;;;5.60;99.90;;;;;;5063239;28;20492;-74
2021/05/01 03:41:26;;;;;;;532.60;54.35;;;5.60;99.90;;;;;;5076898;28;20036;-74
2021/05/01 03:43:53;;;;;;;394.42;53.45;;;5.50;99.90;;;;;;5079172;28;20032;-74
2021/05/01 03:46:18;;;;;;;532.75;57.67;;;5.60;99.90;;;;;;5076279;28;20036;-74
2021/05/01 03:48:44;;;;;;;534.25;59.92;;;5.50;99.90;;;;;;5085590;28;20058;-74
2021/05/01 03:51:10;;;;;;;418.83;51.08;;;5.50;99.90;;;;;;5085100;28;20062;-74
2021/05/01 03:53:36;;;;;;;750.17;66.82;;;5.50;99.90;;;;;;5072747;28;20036;-74
2021/05/01 03:56:02;;;;;;;637.15;58.42;;;5.50;99.90;;;;;;5082772;28;20119;-74
2021/05/01 03:58:28;;;;;;;656.55;62.08;;;5.50;99.90;;;;;;5082819;28;20460;-74
2021/05/01 04:00:53;;;;;;;611.20;60.95;;;5.50;99.90;;;;;;5079116;28;20075;-74
2021/05/01 04:03:21;;;;;;;507.33;57.72;;;5.50;99.90;;;;;;5079206;28;20561;-74
2021/05/01 04:05:46;;;;;;;590.35;63.05;;;5.40;99.90;;;;;;5087632;28;20111;-74
2021/05/01 04:08:12;;;;;;;512.22;58.65;;;5.50;99.90;;;;;;5083588;28;20028;-74
2021/05/01 04:10:38;;;;;;;575.58;63.83;;;5.50;99.90;;;;;;5083485;28;20058;-74
2021/05/01 04:13:04;;;;;;;576.97;63.53;;;5.50;99.90;;;;;;5055252;28;20238;-74
2021/05/01 04:15:30;;;;;;;561.92;61.75;;;5.50;99.90;;;;;;5079258;28;20040;-74
2021/05/01 04:17:56;;;;;;;720.22;68.70;;;5.60;99.90;;;;;;5080108;28;20031;-74
2021/05/01 04:20:22;;;;;;;710.47;68.60;;;5.60;99.90;;;;;;5077188;28;20061;-74
2021/05/01 04:22:49;;;;;;;523.13;61.85;;;5.60;99.90;;;;;;5081860;28;20036;-74
2021/05/01 04:25:15;;;;;;;818.22;80.05;;;5.60;99.90;;;;;;5094115;28;20038;-74
2021/05/01 04:27:41;;;;;;;692.60;72.25;;;5.70;99.90;;;;;;5074811;28;20118;-74
2021/05/01 04:30:08;;;;;;;343.48;56.22;;;5.70;99.90;;;;;;5078593;28;20135;-74
2021/05/01 04:32:34;;;;;;;344.48;59.53;;;5.70;99.90;;;;;;5087275;28;20036;-74
2021/05/01 04:35:00;;;;;;;299.63;59.50;;;5.70;99.90;;;;;;5079235;28;20032;-74
2021/05/01 04:37:26;;;;;;;321.45;64.05;;;5.80;99.90;;;;;;5075156;28;20058;-74
2021/05/01 04:39:52;;;;;;;324.92;69.20;;;5.80;99.90;;;;;;5080995;28;20040;-74
2021/05/01 04:42:18;;;;;;;361.55;72.47;;;5.90;99.90;;;;;;5079535;28;20107;-74
2021/05/01 04:44:44;;;;;;;436.40;81.50;;;5.90;99.90;;;;;;5085844;28;20063;-74
2021/05/01 04:47:10;;;;;;;364.85;79.18;;;6.00;99.90;;;;;;5072657;28;20119;-74
2021/05/01 04:49:39;;;;;;;387.85;78.13;;;6.10;99.90;;;;;;5077585;28;20593;-74
2021/05/01 04:52:05;;;;;;;324.20;71.40;;;6.20;99.90;;;;;;5071185;28;20105;-74
2021/05/01 04:54:31;;;;;;;275.15;63.33;;;6.20;99.90;;;;;;5077320;28;20040;-74
2021/05/01 04:56:56;;;;;;;312.05;65.18;;;6.30;99.90;;;;;;5077890;28;20036;-74
2021/05/01 04:59:22;;;;;;;275.55;64.55;;;6.30;99.90;;;;;;5075472;28;20074;-74
2021/05/01 05:01:48;;;;;;;384.13;74.45;;;6.30;99.90;;;;;;5071579;28;20047;-74
2021/05/01 05:04:14;;;;;;;394.08;73.47;;;6.30;99.90;;;;;;5074858;28;20047;-74
2021/05/01 05:06:40;;;;;;;318.23;70.60;;;6.30;99.90;;;;;;5076719;28;20056;-74
2021/05/01 05:09:06;;;;;;;408.52;76.57;;;6.40;99.90;;;;;;5061230;28;20058;-74
2021/05/01 05:11:32;;;;;;;322.25;69.90;;;6.40;99.90;;;;;;5088934;28;20414;-74
2021/05/01 05:13:59;;;;;;;385.30;71.05;;;6.50;99.90;;;;;;5074994;28;20032;-74
2021/05/01 05:16:26;;;;;;;394.80;72.65;;;6.50;99.90;;;;;;5075191;28;20036;-74
2021/05/01 05:18:52;;;;;;;321.75;66.75;;;6.50;99.90;;;;;;5074704;28;20042;-74
2021/05/01 05:21:17;;;;;;;389.23;72.07;;;6.50;99.90;;;;;;5072133;28;20062;-74
2021/05/01 05:23:43;;;;;;;342.63;68.20;;;6.60;99.90;;;;;;5078125;28;20036;-74
2021/05/01 05:26:09;;;;;;;358.90;68.10;;;6.60;99.90;;;;;;5088903;28;20036;-74
2021/05/01 05:28:35;;;;;;;280.45;64.75;;;6.60;99.90;;;;;;5060796;28;20033;-74
2021/05/01 05:31:00;;;;;;;314.83;69.45;;;6.60;99.90;;;;;;5083463;28;20032;-74
2021/05/01 05:33:26;;;;;;;347.92;71.75;;;6.70;99.90;;;;;;5082345;28;20363;-74
2021/05/01 05:35:53;;;;;;;288.77;69.43;;;6.70;99.90;;;;;;5084953;28;20055;-74
2021/05/01 05:38:18;;;;;;;297.02;68.05;;;6.80;99.90;;;;;;5078774;28;20067;-74
2021/05/01 05:40:44;;;;;;;234.45;65.90;;;6.80;99.90;;;;;;5085788;28;20036;-74
2021/05/01 05:43:10;;;;;;;283.13;71.28;;;6.90;99.90;;;;;;5064504;28;20081;-74
2021/05/01 05:45:38;;;;;;;269.60;71.30;;;6.90;99.90;;;;;;5082897;28;20032;-73
2021/05/01 05:48:04;;;;;;;205.35;67.75;;;7.00;99.90;;;;;;5081531;28;20042;-74
2021/05/01 05:50:31;;;;;;;178.23;61.00;;;7.10;99.90;;;;;;5080923;28;20039;-74
2021/05/01 05:52:57;;;;;;;191.63;62.50;;;7.10;99.90;;;;;;5079047;28;20036;-74
2021/05/01 05:55:22;;;;;;;199.05;63.25;;;7.20;99.90;;;;;;5078857;28;20455;-75
2021/05/01 05:57:51;;;;;;;148.88;56.63;;;7.20;99.90;;;;;;5085194;28;20042;-74
2021/05/01 06:00:19;;;;;;;125.85;53.15;;;7.30;99.90;;;;;;5074523;28;20028;-74
2021/05/01 06:02:46;;;;;;;132.02;53.35;;;7.30;99.90;;;;;;5079202;28;20043;-74
2021/05/01 06:05:41;;;;;;;94.97;46.13;;;7.30;99.90;;;;;;5074560;28;20398;-74
2021/05/01 06:08:10;;;;;;;99.82;47.08;;;7.40;99.90;;;;;;5082570;28;20063;-74
2021/05/01 06:10:37;;;;;;;97.22;47.45;;;7.40;99.90;;;;;;5078370;28;20036;-74
2021/05/01 06:13:04;;;;;;;134.02;51.33;;;7.40;99.90;;;;;;5082134;28;20375;-74
2021/05/01 06:15:31;;;;;;;104.07;47.63;;;7.50;99.90;;;;;;5082669;28;20542;-74
2021/05/01 06:18:00;;;;;;;112.35;49.58;;;7.50;99.90;;;;;;5075074;28;20482;-74
2021/05/01 06:20:28;;;;;;;77.72;41.58;;;7.60;99.90;;;;;;5082697;28;20036;-74
2021/05/01 06:22:55;;;;;;;78.00;41.40;;;7.70;99.90;;;;;;5075744;28;20032;-74
2021/05/01 06:25:21;;;;;;;84.55;44.80;;;7.80;99.90;;;;;;5078098;28;20452;-74
2021/05/01 06:27:52;;;;;;;83.13;45.20;;;7.80;99.90;;;;;;5082604;28;20048;-74
2021/05/01 06:30:18;;;;;;;88.15;44.70;;;7.90;99.90;;;;;;5076817;28;20127;-74
2021/05/01 06:32:45;;;;;;;70.50;41.15;;;7.90;99.90;;;;;;5077562;28;20040;-74
2021/05/01 06:35:11;;;;;;;78.88;43.17;;;8.00;99.90;;;;;;5062388;28;20032;-74
2021/05/01 06:37:41;;;;;;;84.05;43.33;;;8.00;99.90;;;;;;5078940;28;20056;-74
2021/05/01 06:40:12;;;;;;;64.05;37.58;;;8.10;99.90;;;;;;5077202;28;20039;-74
2021/05/01 06:42:43;;;;;;;60.45;36.10;;;8.10;99.90;;;;;;5077421;28;20123;-74
2021/05/01 06:45:16;;;;;;;53.13;33.35;;;8.20;99.90;;;;;;5079324;28;20058;-74
2021/05/01 06:47:54;;;;;;;55.28;34.25;;;8.20;99.90;;;;;;5079644;28;20077;-74
2021/05/01 06:50:26;;;;;;;46.20;29.23;;;8.20;99.90;;;;;;5079850;28;20036;-74
2021/05/01 06:52:53;;;;;;;50.75;31.48;;;8.30;99.90;;;;;;5075230;28;20518;-74
2021/05/01 06:55:21;;;;;;;45.42;29.08;;;8.20;99.90;;;;;;5080351;28;20062;-74
2021/05/01 06:57:48;;;;;;;44.33;29.38;;;8.30;99.90;;;;;;5073801;28;20057;-74
2021/05/01 07:00:15;;;;;;;41.05;27.75;;;8.30;99.90;;;;;;5077929;28;20378;-74
2021/05/01 07:02:49;;;;;;;48.08;29.90;;;8.30;99.90;;;;;;5073815;28;20040;-74
2021/05/01 07:05:16;;;;;;;42.95;27.30;;;8.40;99.90;;;;;;5086490;28;20032;-74
2021/05/01 07:07:44;;;;;;;41.15;26.88;;;8.40;99.90;;;;;;5078009;28;20062;-74
2021/05/01 07:10:10;;;;;;;38.45;25.27;;;8.50;99.90;;;;;;5075581;28;20135;-75
2021/05/01 07:12:37;;;;;;;39.35;28.00;;;8.50;99.90;;;;;;5080779;28;20060;-74
2021/05/01 07:15:05;;;;;;;40.22;26.90;;;8.60;99.90;;;;;;5077055;28;20485;-74
2021/05/01 07:17:31;;;;;;;40.33;26.30;;;8.60;99.90;;;;;;5076211;28;20048;-74
2021/05/01 07:20:02;;;;;;;38.67;26.58;;;8.70;99.90;;;;;;5078310;28;20037;-74
2021/05/01 07:22:29;;;;;;;38.47;24.30;;;8.70;99.90;;;;;;5083907;28;20101;-75
2021/05/01 07:24:55;;;;;;;35.42;24.13;;;8.70;99.90;;;;;;5084963;28;20032;-74
2021/05/01 07:27:35;;;;;;;33.60;23.65;;;8.80;99.80;;;;;;5075296;28;20051;-74
2021/05/01 07:30:03;;;;;;;38.58;26.40;;;8.80;99.50;;;;;;5084886;28;20058;-74
2021/05/01 07:32:42;;;;;;;41.78;26.00;;;8.80;99.40;;;;;;5082629;28;20040;-74
2021/05/01 07:35:08;;;;;;;43.50;29.52;;;8.80;99.40;;;;;;5083187;28;20065;-74
2021/05/01 07:37:39;;;;;;;36.47;24.58;;;8.80;99.40;;;;;;5089438;28;20123;-74
2021/05/01 07:40:10;;;;;;;38.60;24.40;;;8.90;99.40;;;;;;5084487;28;20038;-75
2021/05/01 07:42:43;;;;;;;39.80;26.05;;;8.90;99.10;;;;;;5083130;28;20394;-75
2021/05/01 07:45:13;;;;;;;38.58;23.52;;;9.00;99.00;;;;;;5076009;28;20032;-75
2021/05/01 07:47:42;;;;;;;41.80;25.20;;;9.10;98.90;;;;;;5072167;28;20107;-75
2021/05/01 07:50:08;;;;;;;41.28;24.63;;;9.20;98.80;;;;;;5078550;28;20040;-75
2021/05/01 07:52:36;;;;;;;39.53;26.60;;;9.30;98.70;;;;;;5081514;28;20118;-74
2021/05/01 07:55:03;;;;;;;42.22;26.98;;;9.40;98.70;;;;;;5078745;28;20028;-74
2021/05/01 07:57:29;;;;;;;43.58;27.65;;;9.60;98.60;;;;;;5073460;28;20333;-75
2021/05/01 07:59:54;;;;;;;39.38;25.08;;;9.80;98.40;;;;;;5083067;28;20071;-75
2021/05/01 08:02:20;;;;;;;39.13;25.65;;;10.00;98.30;;;;;;5079069;28;20475;-75
2021/05/01 08:04:46;;;;;;;41.92;25.58;;;10.10;98.30;;;;;;5065911;28;20478;-75
2021/05/01 08:07:12;;;;;;;42.60;27.00;;;10.10;97.70;;;;;;5066523;28;20036;-75
2021/05/01 08:09:38;;;;;;;36.63;24.30;;;9.90;97.60;;;;;;5082087;28;20105;-74
2021/05/01 08:12:04;;;;;;;36.13;21.38;;;9.80;97.70;;;;;;5071261;28;20093;-74
2021/05/01 08:14:30;;;;;;;33.95;22.42;;;9.70;97.70;;;;;;5088122;28;20040;-75
2021/05/01 08:16:56;;;;;;;41.20;22.75;;;9.60;97.60;;;;;;5069229;28;20113;-74
2021/05/01 08:19:22;;;;;;;38.05;24.50;;;9.50;97.70;;;;;;5074272;28;20186;-75
2021/05/01 08:21:48;;;;;;;38.97;24.83;;;9.50;97.80;;;;;;5077897;28;20051;-75
2021/05/01 08:24:14;;;;;;;27.75;19.80;;;9.50;97.90;;;;;;5073374;28;20340;-75
2021/05/01 08:26:40;;;;;;;36.33;21.00;;;9.50;97.80;;;;;;5068761;28;20052;-74
2021/05/01 08:29:06;;;;;;;34.53;22.67;;;9.50;97.70;;;;;;5087716;28;20046;-74
2021/05/01 08:31:31;;;;;;;35.75;22.95;;;9.60;97.80;;;;;;5081174;28;20035;-74
2021/05/01 08:33:59;;;;;;;41.10;23.27;;;9.80;97.90;;;;;;5079112;28;20513;-74
2021/05/01 08:36:26;;;;;;;30.55;18.55;;;10.10;97.80;;;;;;5066113;28;20036;-75
2021/05/01 08:38:52;;;;;;;30.67;18.98;;;10.30;97.40;;;;;;5091311;28;20036;-74
2021/05/01 08:41:18;;;;;;;29.35;16.73;;;10.40;96.80;;;;;;5082275;28;20036;-75
2021/05/01 08:43:44;;;;;;;23.65;16.40;;;10.60;96.40;;;;;;5077966;28;20036;-75
2021/05/01 08:46:13;;;;;;;23.73;15.32;;;10.70;96.30;;;;;;5070890;28;20111;-74
2021/05/01 08:48:44;;;;;;;28.75;16.17;;;10.70;95.50;;;;;;5074189;28;20025;-74
2021/05/01 08:51:11;;;;;;;22.88;16.40;;;10.60;95.40;;;;;;5059022;28;20099;-74
2021/05/01 08:53:37;;;;;;;25.90;15.68;;;10.60;95.30;;;;;;5070630;28;20104;-74
2021/05/01 08:56:03;;;;;;;28.02;16.67;;;10.50;95.40;;;;;;5075199;28;20052;-74
2021/05/01 08:58:29;;;;;;;25.45;16.13;;;10.60;95.20;;;;;;5071879;28;20085;-74
2021/05/01 09:00:55;;;;;;;27.48;16.60;;;10.70;95.60;;;;;;5078543;28;20032;-74
2021/05/01 09:03:22;;;;;;;21.20;14.90;;;10.70;95.00;;;;;;5075319;28;20047;-74
2021/05/01 09:05:50;;;;;;;26.63;15.20;;;10.70;95.00;;;;;;5076929;28;20036;-75
2021/05/01 09:08:18;;;;;;;22.20;14.30;;;10.60;94.90;;;;;;5076316;28;20033;-74
2021/05/01 09:10:50;;;;;;;24.08;14.05;;;10.60;94.90;;;;;;5078578;28;20035;-75
2021/05/01 09:13:16;;;;;;;23.98;14.98;;;10.60;95.00;;;;;;5079318;28;20044;-74
2021/05/01 09:15:58;;;;;;;20.23;13.75;;;10.60;95.10;;;;;;5076350;28;20029;-74
2021/05/01 09:18:25;;;;;;;20.80;13.07;;;10.70;95.00;;;;;;5068035;28;20049;-74
2021/05/01 09:20:51;;;;;;;19.23;13.25;;;11.00;94.90;;;;;;5075250;28;20032;-75
2021/05/01 09:23:18;;;;;;;19.00;12.52;;;11.30;94.60;;;;;;5081469;28;20051;-74
2021/05/01 09:25:58;;;;;;;19.90;12.27;;;11.50;94.30;;;;;;5070589;28;20032;-74
2021/05/01 09:28:25;;;;;;;19.85;13.75;;;11.50;93.30;;;;;;5077705;28;20513;-75
2021/05/01 09:30:59;;;;;;;18.75;12.95;;;11.30;93.30;;;;;;5076365;28;20481;-74
2021/05/01 09:33:35;;;;;;;19.15;12.63;;;11.20;93.40;;;;;;5077750;28;20059;-75
2021/05/01 09:36:09;;;;;;;15.55;10.90;;;11.20;93.50;;;;;;5073730;28;20043;-75
2021/05/01 09:38:47;;;;;;;16.73;11.27;;;11.30;92.90;;;;;;5075176;28;20036;-75
2021/05/01 09:41:16;;;;;;;21.50;12.57;;;11.20;91.70;;;;;;5079031;28;20241;-75
2021/05/01 09:44:02;;;;;;;18.33;11.95;;;11.20;92.60;;;;;;5074129;28;20036;-75
2021/05/01 09:46:37;;;;;;;13.43;10.88;;;11.10;91.30;;;;;;5071083;28;20043;-75
2021/05/01 09:49:31;;;;;;;16.33;9.77;;;11.30;92.30;;;;;;5072711;28;20432;-75
2021/05/01 09:51:59;;;;;;;17.52;11.75;;;11.40;89.80;;;;;;5074914;28;20242;-75
2021/05/01 09:54:37;;;;;;;18.77;11.65;;;11.40;91.30;;;;;;5068194;28;20046;-74
2021/05/01 09:57:06;;;;;;;20.02;13.23;;;11.40;91.70;;;;;;5071828;28;20028;-75
2021/05/01 09:59:54;;;;;;;17.83;10.55;;;11.50;91.90;;;;;;5071450;28;20143;-75
2021/05/01 10:02:33;;;;;;;14.98;9.30;;;11.60;91.50;;;;;;5073330;28;20196;-75
2021/05/01 10:05:13;;;;;;;14.77;9.70;;;11.50;90.70;;;;;;5071976;28;20317;-75
2021/05/01 10:07:47;;;;;;;14.10;9.63;;;11.50;90.60;;;;;;5078826;28;20043;-75
2021/05/01 10:10:13;;;;;;;12.45;10.25;;;11.60;90.90;;;;;;5079273;28;21104;-76
2021/05/01 10:12:44;;;;;;;14.13;10.65;;;11.70;90.60;;;;;;5071420;28;20537;-75
2021/05/01 10:15:24;;;;;;;14.60;9.98;;;11.60;90.50;;;;;;5071465;28;20039;-75
2021/05/01 10:17:51;;;;;;;13.23;9.48;;;11.50;90.20;;;;;;5070172;28;20494;-75
2021/05/01 10:20:18;;;;;;;14.25;9.38;;;11.60;90.70;;;;;;5076443;28;20107;-75
2021/05/01 10:22:50;;;;;;;13.40;9.38;;;11.80;90.90;;;;;;5087350;28;20033;-75
2021/05/01 10:25:29;;;;;;;13.98;8.80;;;12.00;88.50;;;;;;5072636;28;20455;-75
2021/05/01 10:28:10;;;;;;;14.65;9.32;;;12.10;86.10;;;;;;5074553;28;20036;-75
2021/05/01 10:30:54;;;;;;;13.63;8.95;;;12.20;87.40;;;;;;5078853;28;20068;-76
2021/05/01 10:33:26;;;;;;;13.07;9.88;;;12.30;85.90;;;;;;5077898;28;20044;-75
2021/05/01 10:36:03;;;;;;;13.47;9.20;;;12.40;89.00;;;;;;5070481;28;20088;-75
2021/05/01 10:38:30;;;;;;;14.82;9.73;;;12.50;89.80;;;;;;5073537;28;20316;-76
2021/05/01 10:41:01;;;;;;;12.60;8.90;;;12.50;88.70;;;;;;5071787;28;20028;-75
2021/05/01 10:43:32;;;;;;;11.27;8.52;;;12.50;88.20;;;;;;5067895;28;20033;-75
2021/05/01 10:46:07;;;;;;;12.70;9.48;;;12.40;86.70;;;;;;5072944;28;20036;-75
2021/05/01 10:48:54;;;;;;;10.48;8.10;;;12.30;87.00;;;;;;5092312;28;20097;-75
2021/05/01 10:51:35;;;;;;;11.52;8.52;;;12.30;79.90;;;;;;5065845;28;20044;-76
2021/05/01 10:54:08;;;;;;;12.00;8.50;;;12.40;84.00;;;;;;5070777;28;20032;-76
2021/05/01 10:56:35;;;;;;;13.40;8.75;;;12.50;83.50;;;;;;5072801;28;20040;-76
2021/05/01 10:59:11;;;;;;;11.68;8.77;;;12.60;83.10;;;;;;5069917;28;20478;-76
2021/05/01 11:01:49;;;;;;;14.70;9.25;;;12.60;83.90;;;;;;5078577;28;20039;-73
2021/05/01 11:04:29;;;;;;;11.55;8.75;;;12.60;85.30;;;;;;5078904;28;20035;-74
2021/05/01 11:07:16;;;;;;;11.70;8.85;;;12.60;85.70;;;;;;5079479;28;20398;-74
2021/05/01 11:09:50;;;;;;;11.20;8.25;;;12.70;87.10;;;;;;5075664;28;20512;-74
2021/05/01 11:12:21;;;;;;;13.93;7.78;;;12.90;87.10;;;;;;5076523;28;20036;-74
2021/05/01 11:14:51;;;;;;;10.35;7.70;;;13.10;86.50;;;;;;5075581;28;20028;-74
2021/05/01 11:17:32;;;;;;;10.65;7.68;;;13.40;85.40;;;;;;5085525;28;20127;-74
2021/05/01 11:20:08;;;;;;;10.45;7.32;;;13.60;80.20;;;;;;5078669;28;20394;-74
2021/05/01 11:22:37;;;;;;;10.27;7.05;;;13.70;80.80;;;;;;5080757;28;20092;-74
2021/05/01 11:25:05;;;;;;;8.70;6.55;;;13.70;81.30;;;;;;5078900;28;20159;-74
2021/05/01 11:27:31;;;;;;;8.23;6.85;;;13.70;82.10;;;;;;5052935;28;20048;-74
2021/05/01 11:29:57;;;;;;;10.05;7.20;;;13.70;78.00;;;;;;5053634;28;20036;-74
2021/05/01 11:32:23;;;;;;;8.93;7.22;;;13.60;79.90;;;;;;5070504;28;20050;-74
2021/05/01 11:35:07;;;;;;;8.45;6.43;;;13.70;80.70;;;;;;5080285;28;20032;-74
2021/05/01 11:37:47;;;;;;;11.70;6.35;;;13.70;74.80;;;;;;5062553;28;20115;-75
2021/05/01 11:40:14;;;;;;;8.77;5.68;;;13.80;76.60;;;;;;5086879;28;20577;-74
2021/05/01 11:42:42;;;;;;;9.18;6.60;;;13.80;79.40;;;;;;5077571;28;20028;-75
2021/05/01 11:45:37;;;;;;;9.55;6.15;;;13.80;80.60;;;;;;5078226;28;20455;-73
2021/05/01 11:48:07;;;;;;;8.75;6.40;;;13.90;79.00;;;;;;5055180;28;20056;-74
2021/05/01 11:50:34;;;;;;;7.20;5.95;;;14.10;81.10;;;;;;5091013;28;20042;-73
2021/05/01 11:53:12;;;;;;;8.35;6.38;;;14.30;81.10;;;;;;5078929;27;20105;-74
2021/05/01 11:56:20;;;;;;;9.85;6.60;;;14.60;82.30;;;;;;5080529;28;20032;-75
2021/05/01 11:58:45;;;;;;;10.82;7.40;;;14.80;82.10;;;;;;4999428;28;20065;-75
2021/05/01 12:01:18;;;;;;;12.63;8.07;;;14.60;83.20;;;;;;5055815;28;20048;-74
2021/05/01 12:04:01;;;;;;;8.70;6.95;;;14.40;79.60;;;;;;5072668;28;20089;-74
2021/05/01 12:06:38;;;;;;;13.07;7.65;;;14.30;79.40;;;;;;5074548;28;20714;-74
2021/05/01 12:09:12;;;;;;;9.80;8.60;;;14.20;82.30;;;;;;5079787;28;20044;-74
2021/05/01 12:11:38;;;;;;;13.35;9.57;;;13.90;80.70;;;;;;5074198;28;20036;-74
2021/05/01 12:14:09;;;;;;;14.32;9.88;;;13.70;81.00;;;;;;5073145;28;20040;-74
2021/05/01 12:16:35;;;;;;;13.82;8.32;;;13.40;77.30;;;;;;5066936;28;20036;-74
2021/05/01 12:19:02;;;;;;;14.80;9.68;;;13.20;78.60;;;;;;5077086;28;20044;-74
2021/05/01 12:21:46;;;;;;;19.75;11.23;;;13.10;78.30;;;;;;5071799;28;20055;-74
2021/05/01 12:24:24;;;;;;;15.93;11.55;;;13.00;72.20;;;;;;5064332;28;20140;-73
2021/05/01 12:26:50;;;;;;;20.75;12.48;;;12.90;76.70;;;;;;5078774;28;20040;-75
2021/05/01 12:29:20;;;;;;;14.40;11.10;;;12.90;80.20;;;;;;5061126;28;20040;-74
2021/05/01 12:31:48;;;;;;;18.52;11.48;;;12.90;79.30;;;;;;5072563;28;20047;-74
2021/05/01 12:34:14;;;;;;;16.23;11.73;;;12.90;80.40;;;;;;5075039;28;20043;-74
2021/05/01 12:36:45;;;;;;;15.40;11.38;;;12.90;80.50;;;;;;5074773;28;20873;-74
2021/05/01 12:39:12;;;;;;;13.75;10.27;;;12.90;79.40;;;;;;5075425;28;20876;-74